createdAt,value
2019-04-03T00:00:54.640Z,19.17
2019-04-03T00:01:59.971Z,19.37
2019-04-03T00:03:05.782Z,18.83
2019-04-03T00:04:11.310Z,21.03
2019-04-03T00:05:19.450Z,22.93
2019-04-03T00:06:24.907Z,22.37
2019-04-03T00:07:30.197Z,24.03
2019-04-03T00:08:36.652Z,20.97
2019-04-03T00:09:42.311Z,23.10
2019-04-03T00:10:47.540Z,21.33
2019-04-03T00:11:52.798Z,24.50
2019-04-03T00:12:58.015Z,21.63
2019-04-03T00:14:03.170Z,21.30
2019-04-03T00:15:09.246Z,25.40
2019-04-03T00:16:15.638Z,23.67
2019-04-03T00:17:21.320Z,21.77
2019-04-03T00:18:26.494Z,23.73
2019-04-03T00:19:31.704Z,22.43
2019-04-03T00:20:36.799Z,23.37
2019-04-03T00:21:41.966Z,22.70
2019-04-03T00:22:47.288Z,24.27
2019-04-03T00:23:52.969Z,21.77
2019-04-03T00:24:58.390Z,26.27
2019-04-03T00:26:03.638Z,24.37
2019-04-03T00:27:08.827Z,23.50
2019-04-03T00:28:13.923Z,25.30
2019-04-03T00:29:19.145Z,27.13
2019-04-03T00:30:24.293Z,23.47
2019-04-03T00:31:29.411Z,24.93
2019-04-03T00:32:34.593Z,25.97
2019-04-03T00:33:39.738Z,24.33
2019-04-03T00:34:44.914Z,25.93
2019-04-03T00:35:50.230Z,25.73
2019-04-03T00:36:56.855Z,26.30
2019-04-03T00:38:02.194Z,26.07
2019-04-03T00:39:08.074Z,28.43
2019-04-03T00:40:13.614Z,28.27
2019-04-03T00:41:18.767Z,29.40
2019-04-03T00:42:25.221Z,30.27
2019-04-03T00:43:31.313Z,28.70
2019-04-03T00:44:36.431Z,31.20
2019-04-03T00:45:41.665Z,34.30
2019-04-03T00:46:46.818Z,27.83
2019-04-03T00:47:52.119Z,28.80
2019-04-03T00:48:57.380Z,31.63
2019-04-03T00:50:02.622Z,30.23
2019-04-03T00:51:07.853Z,29.10
2019-04-03T00:52:13.214Z,29.80
2019-04-03T00:53:18.477Z,29.70
2019-04-03T00:54:24.774Z,32.00
2019-04-03T00:55:30.843Z,28.97
2019-04-03T00:56:36.054Z,34.83
2019-04-03T00:57:41.179Z,28.10
2019-04-03T00:58:46.468Z,30.47
2019-04-03T00:59:51.571Z,29.77
2019-04-03T01:00:56.864Z,28.47
2019-04-03T01:02:02.131Z,28.63
2019-04-03T01:03:07.324Z,28.37
2019-04-03T01:04:12.577Z,26.60
2019-04-03T01:05:17.750Z,29.33
2019-04-03T01:06:22.830Z,33.13
2019-04-03T01:07:29.209Z,29.77
2019-04-03T01:08:34.959Z,31.87
2019-04-03T01:09:40.016Z,29.23
2019-04-03T01:10:45.220Z,31.53
2019-04-03T01:11:50.461Z,30.27
2019-04-03T01:12:55.955Z,29.27
2019-04-03T01:14:01.850Z,31.70
2019-04-03T01:15:08.868Z,27.00
2019-04-03T01:16:14.395Z,29.93
2019-04-03T01:17:19.731Z,33.33
2019-04-03T01:18:25.046Z,33.37
2019-04-03T01:19:30.405Z,32.10
2019-04-03T01:20:36.288Z,32.77
2019-04-03T01:21:41.985Z,33.03
2019-04-03T01:22:47.155Z,33.37
2019-04-03T01:23:52.378Z,34.00
2019-04-03T01:24:57.526Z,32.47
2019-04-03T01:26:03.006Z,34.93
2019-04-03T01:27:08.203Z,36.60
2019-04-03T01:28:14.544Z,36.00
2019-04-03T01:29:19.870Z,35.43
2019-04-03T01:30:25.062Z,35.03
2019-04-03T01:31:30.323Z,40.07
2019-04-03T01:32:35.658Z,37.63
2019-04-03T01:33:40.815Z,42.60
2019-04-03T01:34:47.642Z,39.73
2019-04-03T01:35:57.612Z,35.90
2019-04-03T01:37:03.085Z,38.30
2019-04-03T01:38:08.311Z,39.80
2019-04-03T01:39:13.439Z,41.50
2019-04-03T01:40:20.930Z,36.77
2019-04-03T01:41:26.290Z,35.03
2019-04-03T01:42:31.691Z,43.13
2019-04-03T01:43:36.879Z,37.30
2019-04-03T01:44:42.097Z,38.23
2019-04-03T01:45:47.357Z,40.10
2019-04-03T01:46:52.633Z,40.53
2019-04-03T01:47:59.372Z,42.73
2019-04-03T01:49:04.555Z,41.63
2019-04-03T01:50:10.915Z,41.97
2019-04-03T01:51:16.428Z,39.40
2019-04-03T01:52:21.599Z,41.97
2019-04-03T01:53:26.874Z,38.20
2019-04-03T01:54:33.695Z,39.47
2019-04-03T01:55:38.943Z,38.77
2019-04-03T01:56:44.000Z,40.03
2019-04-03T01:57:49.220Z,44.97
2019-04-03T01:58:54.357Z,43.47
2019-04-03T01:59:59.544Z,43.23
2019-04-03T02:01:06.340Z,43.27
2019-04-03T02:02:11.687Z,43.17
2019-04-03T02:03:16.798Z,44.63
2019-04-03T02:04:22.241Z,46.67
2019-04-03T02:05:28.249Z,43.33
2019-04-03T02:06:33.456Z,41.93
2019-04-03T02:07:38.577Z,42.20
2019-04-03T02:08:44.956Z,44.40
2019-04-03T02:09:50.456Z,42.93
2019-04-03T02:10:55.752Z,46.50
2019-04-03T02:12:00.895Z,44.10
2019-04-03T02:13:06.159Z,42.60
2019-04-03T02:14:11.326Z,44.00
2019-04-03T02:15:16.532Z,43.03
2019-04-03T02:16:23.055Z,42.50
2019-04-03T02:17:28.499Z,43.43
2019-04-03T02:18:33.698Z,42.30
2019-04-03T02:19:40.531Z,40.60
2019-04-03T02:20:45.731Z,43.20
2019-04-03T02:21:52.023Z,40.03
2019-04-03T02:22:59.742Z,44.57
2019-04-03T02:24:04.095Z,41.53
2019-04-03T02:25:10.971Z,43.63
2019-04-03T02:26:16.456Z,42.80
2019-04-03T02:27:21.610Z,39.97
2019-04-03T02:28:26.792Z,43.07
2019-04-03T02:29:31.974Z,43.00
2019-04-03T02:30:37.108Z,41.83
2019-04-03T02:31:42.345Z,43.73
2019-04-03T02:32:47.398Z,42.10
2019-04-03T02:33:52.689Z,41.10
2019-04-03T02:34:57.837Z,42.27
2019-04-03T02:36:03.037Z,46.43
2019-04-03T02:37:08.189Z,41.97
2019-04-03T02:38:13.619Z,43.87
2019-04-03T02:39:18.777Z,43.40
2019-04-03T02:40:24.028Z,43.63
2019-04-03T02:41:29.145Z,43.07
2019-04-03T02:42:34.457Z,44.90
2019-04-03T02:43:39.590Z,44.50
2019-04-03T02:44:48.328Z,44.67
2019-04-03T02:45:56.415Z,46.63
2019-04-03T02:47:01.476Z,46.43
2019-04-03T02:48:07.236Z,41.33
2019-04-03T02:49:12.596Z,36.17
2019-04-03T02:50:24.490Z,33.80
2019-04-03T02:51:29.557Z,32.10
2019-04-03T02:52:37.801Z,34.10
2019-04-03T02:53:45.623Z,29.10
2019-04-03T02:54:51.326Z,27.13
2019-04-03T02:55:56.508Z,24.93
2019-04-03T02:57:01.685Z,21.47
2019-04-03T02:58:06.823Z,22.30
2019-04-03T02:59:12.015Z,19.20
2019-04-03T03:00:17.360Z,21.17
2019-04-03T03:01:22.463Z,19.77
2019-04-03T03:02:27.708Z,15.03
2019-04-03T03:03:32.938Z,14.20
2019-04-03T03:04:38.318Z,16.27
2019-04-03T03:05:43.384Z,12.63
2019-04-03T03:06:49.194Z,12.70
2019-04-03T03:07:54.400Z,11.60
2019-04-03T03:09:01.080Z,11.40
2019-04-03T03:10:08.300Z,11.43
2019-04-03T03:11:13.623Z,11.40
2019-04-03T03:12:19.377Z,11.53
2019-04-03T03:13:25.210Z,11.00
2019-04-03T03:14:30.430Z,11.03
2019-04-03T03:15:36.039Z,10.07
2019-04-03T03:16:41.367Z,12.87
2019-04-03T03:17:46.513Z,13.13
2019-04-03T03:18:51.781Z,13.23
2019-04-03T03:19:59.162Z,12.07
2019-04-03T03:21:05.879Z,10.70
2019-04-03T03:22:11.681Z,11.83
2019-04-03T03:23:17.004Z,12.47
2019-04-03T03:24:23.282Z,11.80
2019-04-03T03:25:32.103Z,14.40
2019-04-03T03:26:37.461Z,13.53
2019-04-03T03:27:43.476Z,11.13
2019-04-03T03:28:49.080Z,12.07
2019-04-03T03:29:58.431Z,13.47
2019-04-03T03:31:04.810Z,12.87
2019-04-03T03:32:17.624Z,12.67
2019-04-03T03:33:32.600Z,13.47
2019-04-03T03:34:45.878Z,14.30
2019-04-03T03:35:39.176Z,13.07
2019-04-03T03:36:38.065Z,13.63
2019-04-03T03:37:43.451Z,12.77
2019-04-03T03:38:49.156Z,12.87
2019-04-03T03:39:55.105Z,11.93
2019-04-03T03:41:00.367Z,12.17
2019-04-03T03:42:05.530Z,10.93
2019-04-03T03:43:11.577Z,13.93
2019-04-03T03:44:18.369Z,9.80
2019-04-03T03:45:24.153Z,11.93
2019-04-03T03:46:29.550Z,9.73
2019-04-03T03:47:37.171Z,9.70
2019-04-03T03:48:44.836Z,10.50
2019-04-03T03:49:51.188Z,8.80
2019-04-03T03:50:58.631Z,14.00
2019-04-03T03:52:05.845Z,9.80
2019-04-03T03:53:13.093Z,9.40
2019-04-03T03:54:19.279Z,8.37
2019-04-03T03:55:26.230Z,8.77
2019-04-03T03:56:32.637Z,7.97
2019-04-03T03:57:40.469Z,8.03
2019-04-03T03:58:46.673Z,8.10
2019-04-03T03:59:52.814Z,10.67
2019-04-03T04:01:00.291Z,9.27
2019-04-03T04:02:06.617Z,9.97
2019-04-03T04:03:13.185Z,10.57
2019-04-03T04:04:18.427Z,10.07
2019-04-03T04:05:24.991Z,9.30
2019-04-03T04:06:33.019Z,8.13
2019-04-03T04:07:38.293Z,10.37
2019-04-03T04:08:44.979Z,7.93
2019-04-03T04:09:52.690Z,8.97
2019-04-03T04:10:59.420Z,9.30
2019-04-03T04:12:06.613Z,8.17
2019-04-03T04:13:15.153Z,9.20
2019-04-03T04:14:21.145Z,8.20
2019-04-03T04:15:28.839Z,11.53
2019-04-03T04:16:35.634Z,7.97
2019-04-03T04:17:39.192Z,10.80
2019-04-03T04:18:44.318Z,11.13
2019-04-03T04:19:49.585Z,9.73
2019-04-03T04:20:54.871Z,10.17
2019-04-03T04:22:00.669Z,9.57
2019-04-03T04:23:06.200Z,9.67
2019-04-03T04:24:11.582Z,10.97
2019-04-03T04:25:16.755Z,10.97
2019-04-03T04:26:21.828Z,11.90
2019-04-03T04:27:26.960Z,10.37
2019-04-03T04:28:33.473Z,10.80
2019-04-03T04:29:41.038Z,10.20
2019-04-03T04:30:49.301Z,15.17
2019-04-03T04:31:54.754Z,9.93
2019-04-03T04:32:59.941Z,19.33
2019-04-03T04:34:05.189Z,11.57
2019-04-03T04:35:11.229Z,9.80
2019-04-03T04:36:16.648Z,8.97
2019-04-03T04:37:22.490Z,10.23
2019-04-03T04:38:27.605Z,13.17
2019-04-03T04:39:33.360Z,10.13
2019-04-03T04:40:41.514Z,12.27
2019-04-03T04:41:46.617Z,9.27
2019-04-03T04:42:51.680Z,10.53
2019-04-03T04:43:56.923Z,11.60
2019-04-03T04:45:02.134Z,10.03
2019-04-03T04:46:09.220Z,13.53
2019-04-03T04:47:15.315Z,11.73
2019-04-03T04:48:21.418Z,11.37
2019-04-03T04:49:26.868Z,11.97
2019-04-03T04:50:32.279Z,10.97
2019-04-03T04:51:37.485Z,12.37
2019-04-03T04:52:42.598Z,10.80
2019-04-03T04:53:47.726Z,11.23
2019-04-03T04:54:52.946Z,11.47
2019-04-03T04:55:58.169Z,11.83
2019-04-03T04:57:03.278Z,14.50
2019-04-03T04:58:11.248Z,12.63
2019-04-03T04:59:15.219Z,13.30
2019-04-03T05:00:20.282Z,14.63
2019-04-03T05:01:26.647Z,13.13
2019-04-03T05:02:32.005Z,14.33
2019-04-03T05:03:37.463Z,14.27
2019-04-03T05:04:42.564Z,14.30
2019-04-03T05:05:47.864Z,13.10
2019-04-03T05:06:53.255Z,13.23
2019-04-03T05:08:01.354Z,12.73
2019-04-03T05:09:07.779Z,12.57
2019-04-03T05:10:13.202Z,12.87
2019-04-03T05:11:18.416Z,12.13
2019-04-03T05:12:23.655Z,12.27
2019-04-03T05:13:29.004Z,12.23
2019-04-03T05:14:34.405Z,13.27
2019-04-03T05:15:39.856Z,13.40
2019-04-03T05:16:45.154Z,12.90
2019-04-03T05:17:50.633Z,11.07
2019-04-03T05:19:08.182Z,12.90
2019-04-03T05:20:02.730Z,15.33
2019-04-03T05:21:07.902Z,12.47
2019-04-03T05:22:13.070Z,11.73
2019-04-03T05:23:18.187Z,12.63
2019-04-03T05:24:23.376Z,14.97
2019-04-03T05:25:29.783Z,13.53
2019-04-03T05:26:35.509Z,13.53
2019-04-03T05:27:40.711Z,11.63
2019-04-03T05:28:54.590Z,13.60
2019-04-03T05:29:52.567Z,14.40
2019-04-03T05:30:57.717Z,14.07
2019-04-03T05:32:03.119Z,11.40
2019-04-03T05:33:10.708Z,16.27
2019-04-03T05:34:15.084Z,12.77
2019-04-03T05:35:20.311Z,15.27
2019-04-03T05:36:26.625Z,12.50
2019-04-03T05:37:32.781Z,13.23
2019-04-03T05:38:38.481Z,13.57
2019-04-03T05:39:43.813Z,12.40
2019-04-03T05:40:48.891Z,12.23
2019-04-03T05:41:54.980Z,15.07
2019-04-03T05:43:00.307Z,16.10
2019-04-03T05:44:05.640Z,14.53
2019-04-03T05:45:10.874Z,15.53
2019-04-03T05:46:18.949Z,12.97
2019-04-03T05:47:22.780Z,14.67
2019-04-03T05:48:27.892Z,10.70
2019-04-03T05:49:33.079Z,13.30
2019-04-03T05:50:39.768Z,13.10
2019-04-03T05:51:44.935Z,15.07
2019-04-03T05:52:50.297Z,14.13
2019-04-03T05:53:55.413Z,12.60
2019-04-03T05:55:00.519Z,14.23
2019-04-03T05:56:05.632Z,14.57
2019-04-03T05:57:11.888Z,14.47
2019-04-03T05:58:17.758Z,13.77
2019-04-03T05:59:22.985Z,13.47
2019-04-03T06:00:28.316Z,12.97
2019-04-03T06:01:33.485Z,13.10
2019-04-03T06:02:38.717Z,14.70
2019-04-03T06:03:45.263Z,15.20
2019-04-03T06:04:50.657Z,15.77
2019-04-03T06:05:57.588Z,14.97
2019-04-03T06:07:02.775Z,19.47
2019-04-03T06:08:08.088Z,16.43
2019-04-03T06:09:13.481Z,16.73
2019-04-03T06:10:18.636Z,18.83
2019-04-03T06:11:23.805Z,14.30
2019-04-03T06:12:28.929Z,15.97
2019-04-03T06:13:34.257Z,14.77
2019-04-03T06:14:39.438Z,17.50
2019-04-03T06:15:44.518Z,15.80
2019-04-03T06:16:49.672Z,15.83
2019-04-03T06:17:55.936Z,14.87
2019-04-03T06:19:01.035Z,14.80
2019-04-03T06:20:06.571Z,15.43
2019-04-03T06:21:14.464Z,16.13
2019-04-03T06:22:21.202Z,14.90
2019-04-03T06:23:25.432Z,16.90
2019-04-03T06:24:30.593Z,17.20
2019-04-03T06:25:35.976Z,16.67
2019-04-03T06:26:44.004Z,14.97
2019-04-03T06:27:47.951Z,15.97
2019-04-03T06:28:53.165Z,16.03
2019-04-03T06:29:58.259Z,16.40
2019-04-03T06:31:03.333Z,16.87
2019-04-03T06:32:08.560Z,16.67
2019-04-03T06:33:13.849Z,17.97
2019-04-03T06:34:18.996Z,16.77
2019-04-03T06:35:24.143Z,17.73
2019-04-03T06:36:29.384Z,17.10
2019-04-03T06:37:34.653Z,16.53
2019-04-03T06:38:39.877Z,16.60
2019-04-03T06:39:44.971Z,18.67
2019-04-03T06:40:50.211Z,16.30
2019-04-03T06:41:55.286Z,16.40
2019-04-03T06:43:00.444Z,14.87
2019-04-03T06:44:05.594Z,22.50
2019-04-03T06:45:10.927Z,17.80
2019-04-03T06:46:16.059Z,17.90
2019-04-03T06:47:22.214Z,17.20
2019-04-03T06:48:27.418Z,16.40
2019-04-03T06:49:32.558Z,17.23
2019-04-03T06:50:38.383Z,19.40
2019-04-03T06:51:43.751Z,17.93
2019-04-03T06:52:48.919Z,19.90
2019-04-03T06:53:54.083Z,18.63
2019-04-03T06:54:59.223Z,18.83
2019-04-03T06:56:07.817Z,19.67
2019-04-03T06:57:13.759Z,19.23
2019-04-03T06:58:18.694Z,17.37
2019-04-03T06:59:23.889Z,18.47
2019-04-03T07:00:30.228Z,18.17
2019-04-03T07:01:35.536Z,15.80
2019-04-03T07:02:40.954Z,16.13
2019-04-03T07:03:46.055Z,19.60
2019-04-03T07:04:51.296Z,17.87
2019-04-03T07:05:56.692Z,17.97
2019-04-03T07:07:02.209Z,22.50
2019-04-03T07:08:07.380Z,21.93
2019-04-03T07:09:22.754Z,19.23
2019-04-03T07:10:25.702Z,22.23
2019-04-03T07:11:27.522Z,19.17
2019-04-03T07:12:32.677Z,20.90
2019-04-03T07:13:37.842Z,22.00
2019-04-03T07:14:42.941Z,20.57
2019-04-03T07:15:48.093Z,26.30
2019-04-03T07:16:53.439Z,19.50
2019-04-03T07:18:01.074Z,19.87
2019-04-03T07:19:07.477Z,18.30
2019-04-03T07:20:15.295Z,15.57
2019-04-03T07:21:20.565Z,15.83
2019-04-03T07:22:27.429Z,18.13
2019-04-03T07:23:32.856Z,18.77
2019-04-03T07:24:38.096Z,15.53
2019-04-03T07:25:43.307Z,17.50
2019-04-03T07:26:48.430Z,18.23
2019-04-03T07:27:53.551Z,16.37
2019-04-03T07:28:58.747Z,17.07
2019-04-03T07:30:04.448Z,16.50
2019-04-03T07:31:09.733Z,17.00
2019-04-03T07:32:14.910Z,18.73
2019-04-03T07:33:20.066Z,16.73
2019-04-03T07:34:25.328Z,15.93
2019-04-03T07:35:30.537Z,16.57
2019-04-03T07:36:35.825Z,16.20
2019-04-03T07:37:41.034Z,19.07
2019-04-03T07:38:46.088Z,17.17
2019-04-03T07:39:51.245Z,16.43
2019-04-03T07:40:57.444Z,18.47
2019-04-03T07:42:02.705Z,15.67
2019-04-03T07:43:07.764Z,17.10
2019-04-03T07:44:12.885Z,16.63
2019-04-03T07:45:17.962Z,20.07
2019-04-03T07:46:23.144Z,16.47
2019-04-03T07:47:28.263Z,17.27
2019-04-03T07:48:33.693Z,18.70
2019-04-03T07:49:40.054Z,16.60
2019-04-03T07:50:45.400Z,17.70
2019-04-03T07:51:50.458Z,17.90
2019-04-03T07:52:55.577Z,15.97
2019-04-03T07:54:03.675Z,17.83
2019-04-03T07:55:07.888Z,17.27
2019-04-03T07:56:13.349Z,16.00
2019-04-03T07:57:18.594Z,16.23
2019-04-03T07:58:25.358Z,15.63
2019-04-03T07:59:33.423Z,16.50
2019-04-03T08:00:38.526Z,15.27
2019-04-03T08:01:44.480Z,19.73
2019-04-03T08:02:50.119Z,16.80
2019-04-03T08:03:55.280Z,19.47
2019-04-03T08:05:00.922Z,17.57
2019-04-03T08:06:06.410Z,17.17
2019-04-03T08:07:11.531Z,17.87
2019-04-03T08:08:16.679Z,18.57
2019-04-03T08:09:21.834Z,18.43
2019-04-03T08:10:27.998Z,16.53
2019-04-03T08:11:36.704Z,16.07
2019-04-03T08:12:41.803Z,17.40
2019-04-03T08:13:46.942Z,17.83
2019-04-03T08:14:52.237Z,16.73
2019-04-03T08:15:57.478Z,17.00
2019-04-03T08:17:02.555Z,20.43
2019-04-03T08:18:07.600Z,19.60
2019-04-03T08:19:12.776Z,18.67
2019-04-03T08:20:19.597Z,20.37
2019-04-03T08:21:24.660Z,20.30
2019-04-03T08:22:32.617Z,20.00
2019-04-03T08:23:37.569Z,18.80
2019-04-03T08:24:42.870Z,17.57
2019-04-03T08:25:48.844Z,18.53
2019-04-03T08:26:54.516Z,20.63
2019-04-03T08:28:00.794Z,18.53
2019-04-03T08:29:06.057Z,19.50
2019-04-03T08:30:11.761Z,20.47
2019-04-03T08:31:16.937Z,20.70
2019-04-03T08:32:23.794Z,20.90
2019-04-03T08:33:28.922Z,22.93
2019-04-03T08:34:34.174Z,18.47
2019-04-03T08:35:39.419Z,19.30
2019-04-03T08:36:44.633Z,20.83
2019-04-03T08:37:49.697Z,17.67
2019-04-03T08:38:54.907Z,21.97
2019-04-03T08:40:00.058Z,20.10
2019-04-03T08:41:05.308Z,19.20
2019-04-03T08:42:10.416Z,18.20
2019-04-03T08:43:16.662Z,21.00
2019-04-03T08:44:21.739Z,19.70
2019-04-03T08:45:27.141Z,24.07
2019-04-03T08:46:32.342Z,18.63
2019-04-03T08:47:37.742Z,18.70
2019-04-03T08:48:43.260Z,18.93
2019-04-03T08:49:48.397Z,22.17
2019-04-03T08:50:53.623Z,23.33
2019-04-03T08:51:58.887Z,25.00
2019-04-03T08:53:04.031Z,21.90
2019-04-03T08:54:10.483Z,24.63
2019-04-03T08:55:16.450Z,21.90
2019-04-03T08:56:21.636Z,20.53
2019-04-03T08:57:27.233Z,19.90
2019-04-03T08:58:32.620Z,19.77
2019-04-03T08:59:38.010Z,21.27
2019-04-03T09:00:43.109Z,21.73
2019-04-03T09:01:48.247Z,20.63
2019-04-03T09:02:53.545Z,19.37
2019-04-03T09:03:59.150Z,18.10
2019-04-03T09:05:04.969Z,18.73
2019-04-03T09:06:10.167Z,17.47
2019-04-03T09:07:15.270Z,22.37
2019-04-03T09:08:20.347Z,21.40
2019-04-03T09:09:27.014Z,21.20
2019-04-03T09:10:36.536Z,19.30
2019-04-03T09:11:40.283Z,21.07
2019-04-03T09:12:45.395Z,19.60
2019-04-03T09:13:50.547Z,16.73
2019-04-03T09:14:57.023Z,20.47
2019-04-03T09:16:03.713Z,18.33
2019-04-03T09:17:09.885Z,20.03
2019-04-03T09:18:15.174Z,18.57
2019-04-03T09:19:20.244Z,18.47
2019-04-03T09:20:25.541Z,18.57
2019-04-03T09:21:31.009Z,17.20
2019-04-03T09:22:36.615Z,21.20
2019-04-03T09:23:42.150Z,18.13
2019-04-03T09:24:47.311Z,20.70
2019-04-03T09:25:52.522Z,17.67
2019-04-03T09:26:57.768Z,21.40
2019-04-03T09:28:03.073Z,19.03
2019-04-03T09:29:08.256Z,21.83
2019-04-03T09:30:16.153Z,16.80
2019-04-03T09:31:21.863Z,18.53
2019-04-03T09:32:27.126Z,18.63
2019-04-03T09:33:32.690Z,19.03
2019-04-03T09:34:38.195Z,22.63
2019-04-03T09:35:43.410Z,17.20
2019-04-03T09:36:48.776Z,22.40
2019-04-03T09:37:53.845Z,19.23
2019-04-03T09:38:59.274Z,23.00
2019-04-03T09:40:05.044Z,21.13
2019-04-03T09:41:10.230Z,21.53
2019-04-03T09:42:15.427Z,19.87
2019-04-03T09:43:22.289Z,21.30
2019-04-03T09:44:27.498Z,22.13
2019-04-03T09:45:32.771Z,22.73
2019-04-03T09:46:38.410Z,22.73
2019-04-03T09:47:43.659Z,20.60
2019-04-03T09:48:48.974Z,20.43
2019-04-03T09:49:55.242Z,21.57
2019-04-03T09:51:01.443Z,18.93
2019-04-03T09:52:06.637Z,19.33
2019-04-03T09:53:11.866Z,20.63
2019-04-03T09:54:17.066Z,19.43
2019-04-03T09:55:22.312Z,21.00
2019-04-03T09:56:27.768Z,19.63
2019-04-03T09:57:33.156Z,22.53
2019-04-03T09:58:38.524Z,20.53
2019-04-03T09:59:44.046Z,19.43
2019-04-03T10:00:49.135Z,20.27
2019-04-03T10:01:54.280Z,18.90
2019-04-03T10:02:59.619Z,17.97
2019-04-03T10:04:04.833Z,19.17
2019-04-03T10:05:09.952Z,18.80
2019-04-03T10:06:15.122Z,18.77
2019-04-03T10:07:20.304Z,20.60
2019-04-03T10:08:25.540Z,15.93
2019-04-03T10:09:30.932Z,20.33
2019-04-03T10:10:36.201Z,18.90
2019-04-03T10:11:41.533Z,20.60
2019-04-03T10:12:48.051Z,18.73
2019-04-03T10:13:54.959Z,18.27
2019-04-03T10:15:00.785Z,18.90
2019-04-03T10:16:06.042Z,19.83
2019-04-03T10:17:11.259Z,20.27
2019-04-03T10:18:16.441Z,20.07
2019-04-03T10:19:21.608Z,21.70
2019-04-03T10:20:26.797Z,23.63
2019-04-03T10:21:33.358Z,21.00
2019-04-03T10:22:39.033Z,20.37
2019-04-03T10:23:44.485Z,20.83
2019-04-03T10:24:49.827Z,18.63
2019-04-03T10:25:54.911Z,19.37
2019-04-03T10:27:00.300Z,19.90
2019-04-03T10:28:05.593Z,19.63
2019-04-03T10:29:10.910Z,14.63
2019-04-03T10:30:16.676Z,13.87
2019-04-03T10:31:24.291Z,14.07
2019-04-03T10:32:29.760Z,15.83
2019-04-03T10:33:34.903Z,14.90
2019-04-03T10:34:40.069Z,18.00
2019-04-03T10:35:48.155Z,17.53
2019-04-03T10:36:53.329Z,18.43
2019-04-03T10:37:58.800Z,17.97
2019-04-03T10:39:05.988Z,18.67
2019-04-03T10:40:13.107Z,21.17
2019-04-03T10:41:18.363Z,20.90
2019-04-03T10:42:23.728Z,19.90
2019-04-03T10:43:28.865Z,22.17
2019-04-03T10:44:34.222Z,24.03
2019-04-03T10:45:39.515Z,17.83
2019-04-03T10:46:45.443Z,27.03
2019-04-03T10:47:50.747Z,31.43
2019-04-03T10:48:56.136Z,24.87
2019-04-03T10:50:02.602Z,23.40
2019-04-03T10:51:09.702Z,21.43
2019-04-03T10:52:15.278Z,22.63
2019-04-03T10:53:21.210Z,21.00
2019-04-03T10:54:27.422Z,21.17
2019-04-03T10:55:32.606Z,20.17
2019-04-03T10:56:37.808Z,21.80
2019-04-03T10:57:43.135Z,23.27
2019-04-03T10:58:50.129Z,23.67
2019-04-03T10:59:55.595Z,22.83
2019-04-03T11:01:01.154Z,23.53
2019-04-03T11:02:06.579Z,25.57
2019-04-03T11:03:11.714Z,22.70
2019-04-03T11:04:16.874Z,23.80
2019-04-03T11:05:22.043Z,25.17
2019-04-03T11:06:27.225Z,24.60
2019-04-03T11:07:32.414Z,24.83
2019-04-03T11:08:37.638Z,26.63
2019-04-03T11:09:42.824Z,25.17
2019-04-03T11:10:47.979Z,24.70
2019-04-03T11:11:54.367Z,24.47
2019-04-03T11:13:02.267Z,24.37
2019-04-03T11:14:07.489Z,25.77
2019-04-03T11:15:13.655Z,24.57
2019-04-03T11:16:18.925Z,27.00
2019-04-03T11:17:25.702Z,29.90
2019-04-03T11:18:30.810Z,24.73
2019-04-03T11:19:37.462Z,25.60
2019-04-03T11:20:42.708Z,27.27
2019-04-03T11:21:47.849Z,28.63
2019-04-03T11:23:04.110Z,25.90
2019-04-03T11:24:00.178Z,28.63
2019-04-03T11:25:06.468Z,28.20
2019-04-03T11:26:11.710Z,26.47
2019-04-03T11:27:17.325Z,28.53
2019-04-03T11:28:22.696Z,27.17
2019-04-03T11:29:28.222Z,27.43
2019-04-03T11:30:33.400Z,26.83
2019-04-03T11:31:41.823Z,26.83
2019-04-03T11:32:45.531Z,24.97
2019-04-03T11:33:51.501Z,26.93
2019-04-03T11:34:56.820Z,28.20
2019-04-03T11:36:02.152Z,28.33
2019-04-03T11:37:07.365Z,27.97
2019-04-03T11:38:16.671Z,25.83
2019-04-03T11:39:19.307Z,28.53
2019-04-03T11:40:25.497Z,25.40
2019-04-03T11:41:31.270Z,26.70
2019-04-03T11:42:36.574Z,25.00
2019-04-03T11:43:42.018Z,28.57
2019-04-03T11:44:47.479Z,24.20
2019-04-03T11:45:52.635Z,27.83
2019-04-03T11:46:57.978Z,25.10
2019-04-03T11:48:03.619Z,23.87
2019-04-03T11:49:08.942Z,26.33
2019-04-03T11:50:14.927Z,24.50
2019-04-03T11:51:20.222Z,23.37
2019-04-03T11:52:25.405Z,24.43
2019-04-03T11:53:30.713Z,25.27
2019-04-03T11:54:36.994Z,25.70
2019-04-03T11:55:42.772Z,24.07
2019-04-03T11:56:48.304Z,24.07
2019-04-03T11:57:53.390Z,24.53
2019-04-03T11:58:58.524Z,23.00
2019-04-03T12:00:04.379Z,21.17
2019-04-03T12:01:10.127Z,23.33
2019-04-03T12:02:15.372Z,20.17
2019-04-03T12:03:20.828Z,20.47
2019-04-03T12:04:26.025Z,20.30
2019-04-03T12:05:31.459Z,20.27
2019-04-03T12:06:36.678Z,20.50
2019-04-03T12:07:42.218Z,22.37
2019-04-03T12:08:47.439Z,20.13
2019-04-03T12:09:52.596Z,20.27
2019-04-03T12:10:57.755Z,16.10
2019-04-03T12:12:03.330Z,19.43
2019-04-03T12:13:08.490Z,17.10
2019-04-03T12:14:16.641Z,20.57
2019-04-03T12:15:21.781Z,19.50
2019-04-03T12:16:27.234Z,17.57
2019-04-03T12:17:32.505Z,19.90
2019-04-03T12:18:37.635Z,20.83
2019-04-03T12:19:45.434Z,17.63
2019-04-03T12:20:50.409Z,19.13
2019-04-03T12:21:55.819Z,21.57
2019-04-03T12:23:00.973Z,19.53
2019-04-03T12:24:06.162Z,21.47
2019-04-03T12:25:11.339Z,18.33
2019-04-03T12:26:16.653Z,17.27
2019-04-03T12:27:23.337Z,18.00
2019-04-03T12:28:28.541Z,16.57
2019-04-03T12:29:33.606Z,14.00
2019-04-03T12:30:38.795Z,13.83
2019-04-03T12:31:44.037Z,14.40
2019-04-03T12:32:50.225Z,13.77
2019-04-03T12:34:01.140Z,13.27
2019-04-03T12:35:02.288Z,12.90
2019-04-03T12:36:07.436Z,13.67
2019-04-03T12:37:12.669Z,13.23
2019-04-03T12:38:18.246Z,12.37
2019-04-03T12:39:27.819Z,13.07
2019-04-03T12:40:33.602Z,11.90
2019-04-03T12:41:39.210Z,14.20
2019-04-03T12:42:44.745Z,13.53
2019-04-03T12:43:50.744Z,12.17
2019-04-03T12:44:56.079Z,13.80
2019-04-03T12:46:03.061Z,9.10
2019-04-03T12:47:12.795Z,10.43
2019-04-03T12:48:17.169Z,9.87
2019-04-03T12:49:22.865Z,12.33
2019-04-03T12:50:28.798Z,13.20
2019-04-03T12:51:34.042Z,10.40
2019-04-03T12:52:39.226Z,8.73
2019-04-03T12:53:44.661Z,7.90
2019-04-03T12:54:53.772Z,8.90
2019-04-03T12:55:58.471Z,9.03
2019-04-03T12:57:03.705Z,10.20
2019-04-03T12:58:10.020Z,14.97
2019-04-03T12:59:15.162Z,10.27
2019-04-03T13:00:20.897Z,10.83
2019-04-03T13:01:26.048Z,9.53
2019-04-03T13:02:31.477Z,10.63
2019-04-03T13:03:37.333Z,8.90
2019-04-03T13:04:43.005Z,9.47
2019-04-03T13:05:49.140Z,8.53
2019-04-03T13:06:54.480Z,10.57
2019-04-03T13:08:00.345Z,9.90
2019-04-03T13:09:09.403Z,8.63
2019-04-03T13:10:16.530Z,10.43
2019-04-03T13:11:22.351Z,10.20
2019-04-03T13:12:27.979Z,9.33
2019-04-03T13:13:33.233Z,12.33
2019-04-03T13:14:38.551Z,10.27
2019-04-03T13:15:43.797Z,11.43
2019-04-03T13:16:49.011Z,11.07
2019-04-03T13:17:54.480Z,11.93
2019-04-03T13:18:59.551Z,12.23
2019-04-03T13:20:06.108Z,9.90
2019-04-03T13:21:11.846Z,10.73
2019-04-03T13:22:18.587Z,10.80
2019-04-03T13:23:23.979Z,10.23
2019-04-03T13:24:29.344Z,10.50
2019-04-03T13:25:34.931Z,10.60
2019-04-03T13:26:40.256Z,8.43
2019-04-03T13:27:47.264Z,11.67
2019-04-03T13:28:52.534Z,10.43
2019-04-03T13:29:58.127Z,9.97
2019-04-03T13:31:03.431Z,11.17
2019-04-03T13:32:08.520Z,10.43
2019-04-03T13:33:16.363Z,10.93
2019-04-03T13:34:20.819Z,9.77
2019-04-03T13:35:25.988Z,10.20
2019-04-03T13:36:31.151Z,8.90
2019-04-03T13:37:37.686Z,10.27
2019-04-03T13:38:42.838Z,11.30
2019-04-03T13:39:48.405Z,8.80
2019-04-03T13:40:53.926Z,9.17
2019-04-03T13:41:59.361Z,10.57
2019-04-03T13:43:04.886Z,8.87
2019-04-03T13:44:10.154Z,9.67
2019-04-03T13:45:15.470Z,9.80
2019-04-03T13:46:20.646Z,10.67
2019-04-03T13:47:26.107Z,9.97
2019-04-03T13:48:31.348Z,9.07
2019-04-03T13:49:37.852Z,10.20
2019-04-03T13:50:45.481Z,8.40
2019-04-03T13:51:49.942Z,10.20
2019-04-03T13:52:55.054Z,10.73
2019-04-03T13:54:01.008Z,10.23
2019-04-03T13:55:06.870Z,8.40
2019-04-03T13:56:13.201Z,9.53
2019-04-03T13:57:18.324Z,9.93
2019-04-03T13:58:23.627Z,8.57
2019-04-03T13:59:28.709Z,9.50
2019-04-03T14:00:35.014Z,9.50
2019-04-03T14:01:41.047Z,11.43
2019-04-03T14:02:47.239Z,10.27
2019-04-03T14:03:52.385Z,10.27
2019-04-03T14:04:57.934Z,9.53
2019-04-03T14:06:04.486Z,9.93
2019-04-03T14:07:11.327Z,10.57
2019-04-03T14:08:16.681Z,9.87